^^
Datos históricos de la estación: Murcia-Puente Tocinos
Diario Informe para Septiembre 8, 2019 Unidades:  Ambas    Ingés   Métrico
Diario Semanal Mensual Anual
  Máxima: Mínima: Promedio:
Temperatura: 77.2 °F /  25.1 °C 64.9 °F /  18.3 °C 71.8 °F /  22.1 °C
Punto de rocio: 61.2 °F /  16.2 °C 52.2 °F /  11.2 °C 57.2 °F /  14 °C
Humedad: 80% 47.7% 61%
Velocidad viento: 15.9mph /  25.6km/h - 6.8mph /  10.9km/h
Racha viento: 29mph /  46.7km/h - -
Viento- - Este
Presión: 30.1 in /  1018.7 hPa 30 in /  1015.9 hPa -
Precipitación: 0 in /  0.0 mm    
 
 
Tabla de datos para Septiembre 8, 2019
Hora Temperatura Punto de rocio Presión Viento Velocidad viento Racha viento Humedad Intensidad lluvia(por hora) Nubes
00:04 69.6 °F /  20.9 °C 58.6 °F /  14.8 °C 30in /  1016.6hPa NE 6.4mph /  10.3km/h 10mph /  16.1km/h 68.1% 0in /  0.0mm
00:09 69.6 °F /  20.9 °C 59 °F /  15 °C 30in /  1016.6hPa NE 6mph /  9.7km/h 9.2mph /  14.8km/h 69% 0in /  0.0mm
00:14 69.4 °F /  20.8 °C 59.2 °F /  15.1 °C 30in /  1016.6hPa NNE 5.4mph /  8.7km/h 9mph /  14.5km/h 69.7% 0in /  0.0mm
00:19 69.4 °F /  20.8 °C 59.4 °F /  15.2 °C 30in /  1016.7hPa NE 5.7mph /  9.2km/h 9.2mph /  14.8km/h 70.5% 0in /  0.0mm
00:24 69.4 °F /  20.8 °C 59.5 °F /  15.3 °C 30in /  1016.7hPa NE 6.2mph /  10km/h 9.2mph /  14.8km/h 71% 0in /  0.0mm
00:29 69.3 °F /  20.7 °C 59.7 °F /  15.4 °C 30in /  1016.7hPa NE 5.9mph /  9.5km/h 9mph /  14.5km/h 71.5% 0in /  0.0mm
00:34 69.3 °F /  20.7 °C 59.7 °F /  15.4 °C 30in /  1016.8hPa NE 5.4mph /  8.7km/h 8mph /  12.9km/h 72% 0in /  0.0mm
00:39 69.1 °F /  20.6 °C 59.9 °F /  15.5 °C 30in /  1016.8hPa NE 5mph /  8km/h 7.4mph /  11.9km/h 72.5% 0in /  0.0mm
00:44 69.1 °F /  20.6 °C 60.1 °F /  15.6 °C 30in /  1016.8hPa NE 4.3mph /  6.9km/h 7mph /  11.3km/h 73% 0in /  0.0mm
00:49 69.1 °F /  20.6 °C 60.1 °F /  15.6 °C 30in /  1016.8hPa NE 4.2mph /  6.7km/h 6.9mph /  11.1km/h 73% 0in /  0.0mm
00:54 69.1 °F /  20.6 °C 60.1 °F /  15.6 °C 30in /  1016.8hPa NE 4mph /  6.5km/h 7mph /  11.3km/h 73.1% 0in /  0.0mm
00:59 69.1 °F /  20.6 °C 60.4 °F /  15.8 °C 30in /  1016.8hPa NE 3.7mph /  5.9km/h 5.9mph /  9.5km/h 74% 0in /  0.0mm
01:04 69.1 °F /  20.6 °C 60.4 °F /  15.8 °C 30in /  1016.8hPa NE 3.1mph /  5km/h 6mph /  9.7km/h 74% 0in /  0.0mm
01:09 69.1 °F /  20.6 °C 60.4 °F /  15.8 °C 30in /  1016.6hPa NNE 3.3mph /  5.3km/h 6mph /  9.7km/h 74% 0in /  0.0mm
01:14 68.7 °F /  20.4 °C 60.3 °F /  15.7 °C 30in /  1016.6hPa NNE 3.6mph /  5.8km/h 6mph /  9.7km/h 74.3% 0in /  0.0mm
01:19 68.5 °F /  20.3 °C 60.4 °F /  15.8 °C 30in /  1016.7hPa NNE 3.7mph /  6km/h 10.4mph /  16.7km/h 75.1% 0in /  0.0mm
01:24 68.4 °F /  20.2 °C 60.6 °F /  15.9 °C 30in /  1016.7hPa NNE 4.3mph /  6.9km/h 10.4mph /  16.7km/h 76% 0in /  0.0mm
01:29 68.4 °F /  20.2 °C 60.6 °F /  15.9 °C 30in /  1016.7hPa North 4.3mph /  6.9km/h 10mph /  16.1km/h 76.5% 0in /  0.0mm
01:34 68 °F /  20 °C 60.6 °F /  15.9 °C 30in /  1016.7hPa NE 6.3mph /  10.1km/h 9mph /  14.5km/h 77.2% 0in /  0.0mm
01:39 68 °F /  20 °C 61 °F /  16.1 °C 30in /  1016.7hPa NE 6.2mph /  10km/h 9mph /  14.5km/h 78% 0in /  0.0mm
01:44 68.2 °F /  20.1 °C 60.8 °F /  16 °C 30in /  1016.7hPa NE 5.9mph /  9.5km/h 9mph /  14.5km/h 77.1% 0in /  0.0mm
01:49 68 °F /  20 °C 60.8 °F /  16 °C 30in /  1016.8hPa NE 5.8mph /  9.4km/h 8mph /  12.9km/h 77.5% 0in /  0.0mm
01:54 68 °F /  20 °C 60.8 °F /  16 °C 30in /  1016.8hPa NE 5.2mph /  8.4km/h 7mph /  11.3km/h 78% 0in /  0.0mm
01:59 67.8 °F /  19.9 °C 60.8 °F /  16 °C 30in /  1016.8hPa NE 5.2mph /  8.4km/h 8.1mph /  13km/h 78% 0in /  0.0mm
02:04 67.8 °F /  19.9 °C 60.8 °F /  16 °C 30in /  1016.9hPa NE 5.2mph /  8.4km/h 8mph /  12.9km/h 78% 0in /  0.0mm
02:09 67.8 °F /  19.9 °C 60.6 °F /  15.9 °C 30in /  1016.9hPa NE 4.9mph /  7.9km/h 6mph /  9.7km/h 78% 0in /  0.0mm
02:14 67.8 °F /  19.9 °C 60.6 °F /  15.9 °C 30in /  1016.9hPa NNE 4mph /  6.5km/h 6mph /  9.7km/h 78% 0in /  0.0mm
02:19 67.6 °F /  19.8 °C 60.4 °F /  15.8 °C 30in /  1017.0hPa NNE 3.7mph /  5.9km/h 6mph /  9.7km/h 78% 0in /  0.0mm
02:24 67.5 °F /  19.7 °C 60.4 °F /  15.8 °C 30in /  1017.0hPa North 3.1mph /  5km/h 5mph /  8km/h 78% 0in /  0.0mm
02:29 67.5 °F /  19.7 °C 60.4 °F /  15.8 °C 30in /  1017.0hPa NNO 2.9mph /  4.6km/h 5mph /  8km/h 78% 0in /  0.0mm
02:34 67.5 °F /  19.7 °C 60.4 °F /  15.8 °C 30in /  1017.0hPa NNO 2.4mph /  3.9km/h 4mph /  6.4km/h 78% 0in /  0.0mm
02:39 67.5 °F /  19.7 °C 60.4 °F /  15.8 °C 30in /  1017.0hPa NNO 2mph /  3.2km/h 3mph /  4.8km/h 78% 0in /  0.0mm
02:44 67.5 °F /  19.7 °C 60.4 °F /  15.8 °C 30in /  1017.0hPa NNO 1.4mph /  2.2km/h 3mph /  4.8km/h 78% 0in /  0.0mm
02:49 67.5 °F /  19.7 °C 60.4 °F /  15.8 °C 30in /  1017.0hPa NNO 0.9mph /  1.4km/h 4.6mph /  7.4km/h 78.3% 0in /  0.0mm
02:54 67.5 °F /  19.7 °C 60.6 °F /  15.9 °C 30in /  1017.0hPa Calm   5mph /  8km/h 79% 0in /  0.0mm
02:59 67.5 °F /  19.7 °C 60.6 °F /  15.9 °C 30in /  1017.0hPa Calm   2mph /  3.2km/h 79% 0in /  0.0mm
03:04 67.5 °F /  19.7 °C 60.6 °F /  15.9 °C 30in /  1017.0hPa Calm     79% 0in /  0.0mm
03:09 67.3 °F /  19.6 °C 60.4 °F /  15.8 °C 30in /  1016.9hPa Calm   3.1mph /  5km/h 79% 0in /  0.0mm
03:14 67.3 °F /  19.6 °C 60.8 °F /  16 °C 30in /  1016.9hPa Calm   3.5mph /  5.6km/h 79.9% 0in /  0.0mm
03:19 67.3 °F /  19.6 °C 61 °F /  16.1 °C 30in /  1016.9hPa OSO 0.6mph /  0.9km/h 3mph /  4.8km/h 80% 0in /  0.0mm
03:24 67.3 °F /  19.6 °C 61 °F /  16.1 °C 30in /  1016.8hPa OSO 1.4mph /  2.2km/h 1mph /  1.6km/h 80% 0in /  0.0mm
03:29 67.3 °F /  19.6 °C 61 °F /  16.1 °C 30in /  1016.8hPa OSO 0.9mph /  1.4km/h 2.4mph /  3.9km/h 80% 0in /  0.0mm
03:34 67.3 °F /  19.6 °C 61 °F /  16.1 °C 30in /  1016.8hPa Calm   2mph /  3.2km/h 80% 0in /  0.0mm
03:39 67.5 °F /  19.7 °C 61.2 °F /  16.2 °C 30in /  1016.7hPa Calm     80% 0in /  0.0mm
03:44 67.5 °F /  19.7 °C 61.2 °F /  16.2 °C 30in /  1016.7hPa Calm   3.1mph /  5km/h 80% 0in /  0.0mm
03:49 67.5 °F /  19.7 °C 61 °F /  16.1 °C 30in /  1016.7hPa Calm   3.6mph /  5.8km/h 79.7% 0in /  0.0mm
03:54 67.5 °F /  19.7 °C 60.6 °F /  15.9 °C 30in /  1016.6hPa Calm   4mph /  6.4km/h 79% 0in /  0.0mm
03:59 67.5 °F /  19.7 °C 60.8 °F /  16 °C 30in /  1016.6hPa Oeste 0.6mph /  1km/h 3mph /  4.8km/h 79% 0in /  0.0mm
04:04 67.5 °F /  19.7 °C 60.8 °F /  16 °C 30in /  1016.6hPa Oeste 1.4mph /  2.2km/h   79% 0in /  0.0mm
04:09 67.6 °F /  19.8 °C 61 °F /  16.1 °C 30in /  1016.5hPa SO 0.8mph /  1.3km/h 4.7mph /  7.6km/h 79% 0in /  0.0mm
04:14 67.6 °F /  19.8 °C 60.8 °F /  16 °C 30in /  1016.5hPa Calm   5mph /  8km/h 78.7% 0in /  0.0mm
04:19 67.6 °F /  19.8 °C 60.4 °F /  15.8 °C 30in /  1016.5hPa SSE 0.8mph /  1.3km/h 4.6mph /  7.4km/h 77.9% 0in /  0.0mm
04:24 67.6 °F /  19.8 °C 59.9 °F /  15.5 °C 30in /  1016.5hPa SE 2mph /  3.2km/h 5mph /  8km/h 76.2% 0in /  0.0mm
04:29 67.5 °F /  19.7 °C 59.2 °F /  15.1 °C 30in /  1016.5hPa SE 2.4mph /  3.8km/h 5.9mph /  9.5km/h 74.6% 0in /  0.0mm
04:34 67.3 °F /  19.6 °C 58.6 °F /  14.8 °C 30in /  1016.9hPa SE 2.9mph /  4.7km/h 6mph /  9.7km/h 74% 0in /  0.0mm
04:39 66.7 °F /  19.3 °C 58.3 °F /  14.6 °C 30in /  1016.9hPa SSE 3.2mph /  5.1km/h 6mph /  9.7km/h 74% 0in /  0.0mm
04:44 66.6 °F /  19.2 °C 58.1 °F /  14.5 °C 30in /  1016.9hPa Sur 3.6mph /  5.8km/h 8.1mph /  13km/h 74% 0in /  0.0mm
04:49 66.4 °F /  19.1 °C 57.7 °F /  14.3 °C 30in /  1016.9hPa SSO 3.9mph /  6.2km/h 8mph /  12.9km/h 73.5% 0in /  0.0mm
04:54 66.4 °F /  19.1 °C 57.6 °F /  14.2 °C 30in /  1016.7hPa Sur 4.3mph /  6.9km/h 6mph /  9.7km/h 73% 0in /  0.0mm
04:59 66.6 °F /  19.2 °C 57.6 °F /  14.2 °C 30in /  1016.7hPa Sur 3.7mph /  6km/h 6mph /  9.7km/h 73% 0in /  0.0mm
05:04 66.6 °F /  19.2 °C 57.6 °F /  14.2 °C 30in /  1016.7hPa Sur 2.9mph /  4.7km/h 5.2mph /  8.4km/h 72.6% 0in /  0.0mm
05:09 66.7 °F /  19.3 °C 57.2 °F /  14 °C 30in /  1016.7hPa SSE 2.5mph /  4km/h 5mph /  8km/h 71.5% 0in /  0.0mm
05:14 66.7 °F /  19.3 °C 57 °F /  13.9 °C 30in /  1016.7hPa Sur 1.8mph /  2.9km/h 5mph /  8km/h 71% 0in /  0.0mm
05:19 66.7 °F /  19.3 °C 56.7 °F /  13.7 °C 30in /  1016.8hPa Sur 2.1mph /  3.3km/h 5mph /  8km/h 70.1% 0in /  0.0mm
05:24 66.7 °F /  19.3 °C 56.5 °F /  13.6 °C 30in /  1016.8hPa Sur 2.4mph /  3.9km/h 4.6mph /  7.4km/h 69.6% 0in /  0.0mm
05:29 66.7 °F /  19.3 °C 56.3 °F /  13.5 °C 30in /  1016.8hPa Sur 1.4mph /  2.3km/h 5mph /  8km/h 69.2% 0in /  0.0mm
05:34 66.6 °F /  19.2 °C 56.1 °F /  13.4 °C 30in /  1016.8hPa Calm   3.6mph /  5.8km/h 68.9% 0in /  0.0mm
05:39 66.6 °F /  19.2 °C 55.8 °F /  13.2 °C 30in /  1016.8hPa SSE 0.7mph /  1.1km/h 4mph /  6.4km/h 68% 0in /  0.0mm
05:44 66.6 °F /  19.2 °C 55.8 °F /  13.2 °C 30in /  1016.8hPa SSO 1.8mph /  2.9km/h 3.6mph /  5.8km/h 68.6% 0in /  0.0mm
05:49 66.4 °F /  19.1 °C 56.5 °F /  13.6 °C 30in /  1016.9hPa SO 1.8mph /  2.9km/h 4mph /  6.4km/h 70.3% 0in /  0.0mm
05:54 66.4 °F /  19.1 °C 56.5 °F /  13.6 °C 30in /  1016.9hPa SO 1.8mph /  2.9km/h 2.3mph /  3.7km/h 70.5% 0in /  0.0mm
05:59 66 °F /  18.9 °C 55.6 °F /  13.1 °C 30in /  1016.9hPa SE 1.6mph /  2.6km/h 4.7mph /  7.6km/h 68.9% 0in /  0.0mm
06:04 65.8 °F /  18.8 °C 54.7 °F /  12.6 °C 30in /  1017.1hPa ENE 1.4mph /  2.2km/h 5mph /  8km/h 67.4% 0in /  0.0mm
06:09 65.7 °F /  18.7 °C 54.3 °F /  12.4 °C 30in /  1017.1hPa ENE 0.9mph /  1.4km/h 1.4mph /  2.3km/h 67% 0in /  0.0mm
06:14 65.5 °F /  18.6 °C 53.8 °F /  12.1 °C 30in /  1017.1hPa Calm   3.6mph /  5.8km/h 66.3% 0in /  0.0mm
06:19 65.1 °F /  18.4 °C 54 °F /  12.2 °C 30in /  1017.1hPa SSE 0.7mph /  1.1km/h 4mph /  6.4km/h 67.1% 0in /  0.0mm
06:24 65.3 °F /  18.5 °C 54.3 °F /  12.4 °C 30in /  1017.0hPa SSE 1.8mph /  2.9km/h 4.6mph /  7.4km/h 67.9% 0in /  0.0mm
06:29 65.3 °F /  18.5 °C 54 °F /  12.2 °C 30in /  1017.0hPa SE 1.9mph /  3km/h 5mph /  8km/h 66.9% 0in /  0.0mm
06:34 65.3 °F /  18.5 °C 53.6 °F /  12 °C 30in /  1017.1hPa SE 2mph /  3.2km/h 3.6mph /  5.8km/h 66.1% 0in /  0.0mm
06:39 65.3 °F /  18.5 °C 54.3 °F /  12.4 °C 30in /  1017.1hPa SSE 1.9mph /  3.1km/h 4mph /  6.4km/h 67.5% 0in /  0.0mm
06:44 65.1 °F /  18.4 °C 54.9 °F /  12.7 °C 30in /  1017.1hPa SO 1.8mph /  2.9km/h 5mph /  8km/h 69.4% 0in /  0.0mm
06:49 64.9 °F /  18.3 °C 54.3 °F /  12.4 °C 30in /  1017.3hPa NNE 1.8mph /  2.9km/h 5mph /  8km/h 68.2% 0in /  0.0mm
06:54 64.9 °F /  18.3 °C 54.9 °F /  12.7 °C 30in /  1017.3hPa ONO 1.8mph /  2.9km/h 5.2mph /  8.4km/h 69.8% 0in /  0.0mm
06:59 64.9 °F /  18.3 °C 54.7 °F /  12.6 °C 30in /  1017.3hPa ONO 1.9mph /  3km/h 5mph /  8km/h 69.4% 0in /  0.0mm
07:04 64.9 °F /  18.3 °C 54.5 °F /  12.5 °C 30.1in /  1017.5hPa NNO 2mph /  3.2km/h 2.3mph /  3.7km/h 69% 0in /  0.0mm
07:09 64.9 °F /  18.3 °C 54.3 °F /  12.4 °C 30.1in /  1017.5hPa NNO 1.7mph /  2.8km/h 3.6mph /  5.8km/h 68.7% 0in /  0.0mm
07:14 64.9 °F /  18.3 °C 54.5 °F /  12.5 °C 30.1in /  1017.5hPa ONO 1.4mph /  2.2km/h 4.7mph /  7.6km/h 68.8% 0in /  0.0mm
07:19 64.9 °F /  18.3 °C 54.5 °F /  12.5 °C 30.1in /  1017.5hPa Oeste 1.6mph /  2.5km/h 5mph /  8km/h 69% 0in /  0.0mm
07:24 64.9 °F /  18.3 °C 54.5 °F /  12.5 °C 30.1in /  1017.5hPa OSO 1.8mph /  2.9km/h 5mph /  8km/h 69% 0in /  0.0mm
07:29 65.1 °F /  18.4 °C 54.5 °F /  12.5 °C 30.1in /  1017.5hPa OSO 1.9mph /  3km/h 4mph /  6.4km/h 68.6% 0in /  0.0mm
07:34 65.3 °F /  18.5 °C 54.7 °F /  12.6 °C 30.1in /  1017.6hPa SO 2mph /  3.2km/h 3.6mph /  5.8km/h 68.4% 0in /  0.0mm
07:39 65.7 °F /  18.7 °C 54.3 °F /  12.4 °C 30.1in /  1017.6hPa Este 1.7mph /  2.8km/h 4mph /  6.4km/h 67% 0in /  0.0mm
07:44 65.7 °F /  18.7 °C 54.3 °F /  12.4 °C 30.1in /  1017.6hPa ESE 1.4mph /  2.2km/h 4.3mph /  6.9km/h 67% 0in /  0.0mm
07:49 65.7 °F /  18.7 °C 54.3 °F /  12.4 °C 30.1in /  1017.6hPa SSE 1.8mph /  2.9km/h 5mph /  8km/h 67% 0in /  0.0mm
07:54 65.7 °F /  18.7 °C 54.5 °F /  12.5 °C 30.1in /  1017.6hPa SSE 2.4mph /  3.9km/h 6.2mph /  10km/h 67% 0in /  0.0mm
07:59 65.8 °F /  18.8 °C 54.5 °F /  12.5 °C 30.1in /  1017.6hPa SSE 2.7mph /  4.3km/h 6mph /  9.7km/h 66.9% 0in /  0.0mm
08:04 66 °F /  18.9 °C 54.5 °F /  12.5 °C 30.1in /  1017.9hPa SSE 3.1mph /  5km/h 6mph /  9.7km/h 66.4% 0in /  0.0mm
08:09 66.4 °F /  19.1 °C 54.1 °F /  12.3 °C 30.1in /  1017.9hPa Sur 3.1mph /  5km/h 6.2mph /  10km/h 64.8% 0in /  0.0mm
08:14 66.7 °F /  19.3 °C 53.6 °F /  12 °C 30.1in /  1017.9hPa SSO 3.1mph /  5km/h 6mph /  9.7km/h 63% 0in /  0.0mm
08:19 66.7 °F /  19.3 °C 53.1 °F /  11.7 °C 30.1in /  1017.9hPa SSO 3.5mph /  5.6km/h 7.4mph /  11.9km/h 61.4% 0in /  0.0mm
08:24 66.9 °F /  19.4 °C 53.1 °F /  11.7 °C 30.1in /  1017.9hPa SSO 4mph /  6.5km/h 7mph /  11.3km/h 61% 0in /  0.0mm
08:29 67.1 °F /  19.5 °C 53.2 °F /  11.8 °C 30.1in /  1017.9hPa SSO 4mph /  6.5km/h 6mph /  9.7km/h 60.9% 0in /  0.0mm
08:34 67.3 °F /  19.6 °C 52.9 °F /  11.6 °C 30.1in /  1018.0hPa SSO 4mph /  6.5km/h 7.4mph /  11.9km/h 60.1% 0in /  0.0mm
08:39 67.5 °F /  19.7 °C 53.1 °F /  11.7 °C 30.1in /  1018.0hPa SSO 4.2mph /  6.7km/h 7mph /  11.3km/h 59.9% 0in /  0.0mm
08:44 67.5 °F /  19.7 °C 52.7 °F /  11.5 °C 30.1in /  1018.0hPa Sur 4.3mph /  6.9km/h 8.1mph /  13km/h 59.1% 0in /  0.0mm
08:49 67.6 °F /  19.8 °C 52.5 °F /  11.4 °C 30.1in /  1018.2hPa SSO 4.7mph /  7.5km/h 10.4mph /  16.7km/h 58.4% 0in /  0.0mm
08:54 67.8 °F /  19.9 °C 52.2 °F /  11.2 °C 30.1in /  1018.2hPa SSO 5.2mph /  8.4km/h 10mph /  16.1km/h 57.5% 0in /  0.0mm
08:59 68.2 °F /  20.1 °C 52.3 °F /  11.3 °C 30.1in /  1018.2hPa SSO 5.3mph /  8.5km/h 8.1mph /  13km/h 57% 0in /  0.0mm
09:04 68.4 °F /  20.2 °C 52.3 °F /  11.3 °C 30.1in /  1018.2hPa SSE 5.4mph /  8.7km/h 8mph /  12.9km/h 56.5% 0in /  0.0mm
09:09 68.7 °F /  20.4 °C 52.2 °F /  11.2 °C 30.1in /  1018.2hPa SSO 5mph /  8km/h 7.4mph /  11.9km/h 55.6% 0in /  0.0mm
09:14 69.1 °F /  20.6 °C 52.3 °F /  11.3 °C 30.1in /  1018.2hPa SE 4.3mph /  6.9km/h 8.7mph /  14km/h 55.4% 0in /  0.0mm
09:19 69.6 °F /  20.9 °C 52.3 °F /  11.3 °C 30.1in /  1018.4hPa SSE 3.9mph /  6.2km/h 9.2mph /  14.8km/h 54% 0in /  0.0mm
09:24 70.2 °F /  21.2 °C 52.3 °F /  11.3 °C 30.1in /  1018.4hPa Sur 3.1mph /  5km/h 8.1mph /  13km/h 53.4% 0in /  0.0mm
09:29 70.3 °F /  21.3 °C 52.3 °F /  11.3 °C 30.1in /  1018.4hPa SSE 3.3mph /  5.3km/h 7mph /  11.3km/h 53% 0in /  0.0mm
09:34 70.7 °F /  21.5 °C 52.7 °F /  11.5 °C 30.1in /  1018.4hPa SSE 3.6mph /  5.8km/h 5mph /  8km/h 53% 0in /  0.0mm
09:39 71.6 °F /  22 °C 52.9 °F /  11.6 °C 30.1in /  1018.4hPa SSE 2.2mph /  3.5km/h 4mph /  6.4km/h 51.7% 0in /  0.0mm
09:44 72.5 °F /  22.5 °C 52.7 °F /  11.5 °C 30.1in /  1018.4hPa Calm   5.2mph /  8.4km/h 49.8% 0in /  0.0mm
09:49 72.9 °F /  22.7 °C 52.5 °F /  11.4 °C 30.1in /  1018.4hPa SSE 0.9mph /  1.5km/h 5.2mph /  8.4km/h 49% 0in /  0.0mm
09:54 72.9 °F /  22.7 °C 52.7 °F /  11.5 °C 30.1in /  1018.2hPa SSE 2.4mph /  3.9km/h 5mph /  8km/h 49% 0in /  0.0mm
09:59 73.4 °F /  23 °C 53.1 °F /  11.7 °C 30.1in /  1018.2hPa ESE 2.2mph /  3.6km/h 5.9mph /  9.5km/h 49% 0in /  0.0mm
10:04 73.8 °F /  23.2 °C 53.4 °F /  11.9 °C 30.1in /  1018.3hPa ENE 2mph /  3.2km/h 6mph /  9.7km/h 49% 0in /  0.0mm
10:09 74.1 °F /  23.4 °C 53.6 °F /  12 °C 30.1in /  1018.3hPa NE 2mph /  3.2km/h 6.2mph /  10km/h 48.7% 0in /  0.0mm
10:14 74.7 °F /  23.7 °C 53.6 °F /  12 °C 30.1in /  1018.3hPa ENE 2mph /  3.2km/h 10.7mph /  17.2km/h 48% 0in /  0.0mm
10:19 74.5 °F /  23.6 °C 53.6 °F /  12 °C 30.1in /  1018.4hPa Este 2.9mph /  4.6km/h 11mph /  17.7km/h 48% 0in /  0.0mm
10:24 74.5 °F /  23.6 °C 53.6 °F /  12 °C 30.1in /  1018.4hPa NE 4.3mph /  6.9km/h 10.7mph /  17.2km/h 48.2% 0in /  0.0mm
10:29 74.1 °F /  23.4 °C 53.6 °F /  12 °C 30.1in /  1018.4hPa NE 5.3mph /  8.6km/h 11mph /  17.7km/h 48.9% 0in /  0.0mm
10:34 74.3 °F /  23.5 °C 53.8 °F /  12.1 °C 30.1in /  1018.4hPa ENE 6.9mph /  11.1km/h 15mph /  24.1km/h 48.9% 0in /  0.0mm
10:39 74.5 °F /  23.6 °C 54 °F /  12.2 °C 30.1in /  1018.4hPa NE 6.7mph /  10.8km/h 15mph /  24.1km/h 48.6% 0in /  0.0mm
10:44 74.8 °F /  23.8 °C 54.1 °F /  12.3 °C 30.1in /  1018.4hPa NE 6.4mph /  10.3km/h 15mph /  24.1km/h 48.8% 0in /  0.0mm
10:49 75.6 °F /  24.2 °C 54.7 °F /  12.6 °C 30.1in /  1018.4hPa NE 6.4mph /  10.3km/h 13.8mph /  22.2km/h 48.4% 0in /  0.0mm
10:54 75.7 °F /  24.3 °C 54.5 °F /  12.5 °C 30.1in /  1018.4hPa ENE 6.4mph /  10.3km/h 14mph /  22.5km/h 47.7% 0in /  0.0mm
10:59 75.7 °F /  24.3 °C 54.7 °F /  12.6 °C 30.1in /  1018.4hPa NE 6.3mph /  10.2km/h 13mph /  20.9km/h 47.9% 0in /  0.0mm
11:04 76.3 °F /  24.6 °C 55.2 °F /  12.9 °C 30.1in /  1018.5hPa ENE 6.2mph /  10km/h 15.2mph /  24.5km/h 48.2% 0in /  0.0mm
11:09 76.5 °F /  24.7 °C 56.7 °F /  13.7 °C 30.1in /  1018.5hPa NE 6.6mph /  10.7km/h 20.7mph /  33.3km/h 50.3% 0in /  0.0mm
11:14 76.5 °F /  24.7 °C 57.9 °F /  14.4 °C 30.1in /  1018.5hPa ENE 7.4mph /  11.9km/h 21mph /  33.8km/h 52.7% 0in /  0.0mm
11:19 75.9 °F /  24.4 °C 59.2 °F /  15.1 °C 30.1in /  1018.5hPa ENE 8.9mph /  14.3km/h 21mph /  33.8km/h 56% 0in /  0.0mm
11:24 75.6 °F /  24.2 °C 59.5 °F /  15.3 °C 30.1in /  1018.5hPa ENE 11.2mph /  18km/h 21.9mph /  35.2km/h 57.5% 0in /  0.0mm
11:29 75.4 °F /  24.1 °C 58.6 °F /  14.8 °C 30.1in /  1018.5hPa ENE 11.6mph /  18.7km/h 22mph /  35.4km/h 56.1% 0in /  0.0mm
11:34 75.4 °F /  24.1 °C 57.6 °F /  14.2 °C 30.1in /  1018.6hPa ENE 12.3mph /  19.8km/h 21.5mph /  34.6km/h 54% 0in /  0.0mm
11:39 75.6 °F /  24.2 °C 57.2 °F /  14 °C 30.1in /  1018.6hPa NE 11.9mph /  19.1km/h 23mph /  37km/h 53.1% 0in /  0.0mm
11:44 75.6 °F /  24.2 °C 57 °F /  13.9 °C 30.1in /  1018.6hPa NE 11.2mph /  18km/h 23mph /  37km/h 52.8% 0in /  0.0mm
11:49 75.4 °F /  24.1 °C 57.4 °F /  14.1 °C 30.1in /  1018.7hPa ENE 12.1mph /  19.5km/h 25.3mph /  40.7km/h 53.6% 0in /  0.0mm
11:54 75.6 °F /  24.2 °C 58.6 °F /  14.8 °C 30.1in /  1018.7hPa ENE 13.5mph /  21.7km/h 25mph /  40.2km/h 55.7% 0in /  0.0mm
11:59 75.7 °F /  24.3 °C 58.6 °F /  14.8 °C 30.1in /  1018.7hPa NE 12.6mph /  20.3km/h 21mph /  33.8km/h 55.2% 0in /  0.0mm
12:04 75.9 °F /  24.4 °C 58.8 °F /  14.9 °C 30.1in /  1018.7hPa ENE 11.4mph /  18.4km/h 21.9mph /  35.2km/h 55.6% 0in /  0.0mm
12:09 75.7 °F /  24.3 °C 59.5 °F /  15.3 °C 30.1in /  1018.7hPa ENE 11.4mph /  18.4km/h 23mph /  37km/h 56.9% 0in /  0.0mm
12:14 75.6 °F /  24.2 °C 59.7 °F /  15.4 °C 30.1in /  1018.7hPa ENE 11.4mph /  18.4km/h 25.3mph /  40.7km/h 58.1% 0in /  0.0mm
12:19 75.4 °F /  24.1 °C 60.1 °F /  15.6 °C 30.1in /  1018.7hPa ENE 11.7mph /  18.9km/h 25mph /  40.2km/h 59% 0in /  0.0mm
12:24 75.7 °F /  24.3 °C 60.3 °F /  15.7 °C 30.1in /  1018.6hPa NE 12.3mph /  19.8km/h 23.7mph /  38.1km/h 58.9% 0in /  0.0mm
12:29 75.4 °F /  24.1 °C 59.9 °F /  15.5 °C 30.1in /  1018.6hPa ENE 11.9mph /  19.1km/h 24.2mph /  38.9km/h 58.6% 0in /  0.0mm
12:34 75.4 °F /  24.1 °C 59.9 °F /  15.5 °C 30.1in /  1018.6hPa ENE 11.2mph /  18km/h 23mph /  37km/h 58.8% 0in /  0.0mm
12:39 75.6 °F /  24.2 °C 60.1 °F /  15.6 °C 30.1in /  1018.6hPa ENE 11mph /  17.7km/h 23mph /  37km/h 58.8% 0in /  0.0mm
12:44 75.6 °F /  24.2 °C 59.5 °F /  15.3 °C 30.1in /  1018.6hPa NE 10.7mph /  17.2km/h 21.9mph /  35.2km/h 57.7% 0in /  0.0mm
12:49 75.4 °F /  24.1 °C 59.4 °F /  15.2 °C 30.1in /  1018.6hPa ENE 11.4mph /  18.3km/h 23.5mph /  37.8km/h 57.3% 0in /  0.0mm
12:54 75.6 °F /  24.2 °C 59.4 °F /  15.2 °C 30.1in /  1018.6hPa NE 12.3mph /  19.8km/h 24.2mph /  38.9km/h 57% 0in /  0.0mm
12:59 75.9 °F /  24.4 °C 59.2 °F /  15.1 °C 30.1in /  1018.6hPa NE 12.3mph /  19.8km/h 24.2mph /  38.9km/h 56.1% 0in /  0.0mm
13:04 76.1 °F /  24.5 °C 58.8 °F /  14.9 °C 30.1in /  1018.6hPa NE 12.3mph /  19.8km/h 23mph /  37km/h 55.1% 0in /  0.0mm
13:09 75.9 °F /  24.4 °C 59.2 °F /  15.1 °C 30.1in /  1018.5hPa NE 12mph /  19.3km/h 23mph /  37km/h 56% 0in /  0.0mm
13:14 76.3 °F /  24.6 °C 59.4 °F /  15.2 °C 30.1in /  1018.5hPa NE 11.4mph /  18.4km/h 21mph /  33.8km/h 56% 0in /  0.0mm
13:19 76.3 °F /  24.6 °C 59.5 °F /  15.3 °C 30.1in /  1018.5hPa ENE 10.9mph /  17.5km/h 23mph /  37km/h 56.2% 0in /  0.0mm
13:24 76.1 °F /  24.5 °C 58.8 °F /  14.9 °C 30.1in /  1018.4hPa NE 10mph /  16.1km/h 23mph /  37km/h 55.4% 0in /  0.0mm
13:29 76.1 °F /  24.5 °C 58.8 °F /  14.9 °C 30.1in /  1018.4hPa ENE 11mph /  17.7km/h 25.6mph /  41.2km/h 55.1% 0in /  0.0mm
13:34 76.3 °F /  24.6 °C 59 °F /  15 °C 30.1in /  1018.4hPa ENE 12.5mph /  20.1km/h 26mph /  41.8km/h 55% 0in /  0.0mm
13:39 76.6 °F /  24.8 °C 59.2 °F /  15.1 °C 30.1in /  1018.4hPa ENE 12.2mph /  19.7km/h 24.2mph /  38.9km/h 54.8% 0in /  0.0mm
13:44 76.8 °F /  24.9 °C 59 °F /  15 °C 30.1in /  1018.4hPa Este 11.8mph /  19km/h 22.3mph /  35.9km/h 54.3% 0in /  0.0mm
13:49 77 °F /  25 °C 59 °F /  15 °C 30.1in /  1018.4hPa NE 10.9mph /  17.6km/h 22mph /  35.4km/h 53.8% 0in /  0.0mm
13:54 77.2 °F /  25.1 °C 58.8 °F /  14.9 °C 30.1in /  1018.2hPa ENE 9.7mph /  15.6km/h 23mph /  37km/h 53.2% 0in /  0.0mm
13:59 77.2 °F /  25.1 °C 58.5 °F /  14.7 °C 30.1in /  1018.2hPa NE 10.7mph /  17.3km/h 24.6mph /  39.6km/h 52.5% 0in /  0.0mm
14:04 76.6 °F /  24.8 °C 58.8 °F /  14.9 °C 30.1in /  1018.2hPa NE 12.3mph /  19.8km/h 25mph /  40.2km/h 54.2% 0in /  0.0mm
14:09 76.6 °F /  24.8 °C 59.2 °F /  15.1 °C 30.1in /  1018.1hPa ENE 12.3mph /  19.8km/h 22mph /  35.4km/h 54.7% 0in /  0.0mm
14:14 76.6 °F /  24.8 °C 59 °F /  15 °C 30.1in /  1018.1hPa ENE 12.3mph /  19.8km/h 25.6mph /  41.2km/h 54.5% 0in /  0.0mm
14:19 76.5 °F /  24.7 °C 58.8 °F /  14.9 °C 30.1in /  1018.1hPa NE 12.6mph /  20.3km/h 26mph /  41.8km/h 54.2% 0in /  0.0mm
14:24 76.6 °F /  24.8 °C 59.4 °F /  15.2 °C 30.1in /  1017.9hPa ENE 13mph /  20.9km/h 25mph /  40.2km/h 55.4% 0in /  0.0mm
14:29 76.6 °F /  24.8 °C 59.2 °F /  15.1 °C 30.1in /  1017.9hPa NE 12.2mph /  19.7km/h 22mph /  35.4km/h 54.6% 0in /  0.0mm
14:34 76.8 °F /  24.9 °C 59.2 °F /  15.1 °C 30.1in /  1017.9hPa NE 11.2mph /  18km/h 25.6mph /  41.2km/h 54.4% 0in /  0.0mm
14:39 76.3 °F /  24.6 °C 59.4 °F /  15.2 °C 30.1in /  1017.9hPa NE 12.2mph /  19.6km/h 26mph /  41.8km/h 55.8% 0in /  0.0mm
14:44 75.9 °F /  24.4 °C 59.4 °F /  15.2 °C 30.1in /  1017.9hPa NE 13.7mph /  22.1km/h 24.2mph /  38.9km/h 56.4% 0in /  0.0mm
14:49 75.9 °F /  24.4 °C 59.7 °F /  15.4 °C 30.1in /  1017.9hPa ENE 13.4mph /  21.6km/h 24mph /  38.6km/h 57.1% 0in /  0.0mm
14:54 76.5 °F /  24.7 °C 59.9 °F /  15.5 °C 30.1in /  1017.8hPa ENE 13mph /  20.9km/h 22.5mph /  36.2km/h 56.4% 0in /  0.0mm
14:59 76.5 °F /  24.7 °C 59.5 °F /  15.3 °C 30.1in /  1017.8hPa NE 12.5mph /  20.1km/h 24.8mph /  39.9km/h 56% 0in /  0.0mm
15:04 76.3 °F /  24.6 °C 59.5 °F /  15.3 °C 30.1in /  1017.8hPa NE 11.8mph /  19km/h 25.3mph /  40.7km/h 56.4% 0in /  0.0mm
15:09 76.5 °F /  24.7 °C 59.7 °F /  15.4 °C 30.1in /  1017.6hPa NE 12.1mph /  19.4km/h 25.3mph /  40.7km/h 56.2% 0in /  0.0mm
15:14 75.9 °F /  24.4 °C 59.5 °F /  15.3 °C 30.1in /  1017.6hPa NE 12.5mph /  20.1km/h 25.3mph /  40.7km/h 56.8% 0in /  0.0mm
15:19 75.9 °F /  24.4 °C 59.9 °F /  15.5 °C 30.1in /  1017.6hPa ENE 12.4mph /  20km/h 24.2mph /  38.9km/h 57.6% 0in /  0.0mm
15:24 75.7 °F /  24.3 °C 59.9 °F /  15.5 °C 30in /  1017.4hPa NE 12.3mph /  19.8km/h 24.6mph /  39.6km/h 57.7% 0in /  0.0mm
15:29 75.9 °F /  24.4 °C 59.9 °F /  15.5 °C 30in /  1017.4hPa ENE 13.2mph /  21.2km/h 25mph /  40.2km/h 57.6% 0in /  0.0mm
15:34 76.3 °F /  24.6 °C 59.7 °F /  15.4 °C 30in /  1017.4hPa ENE 14.5mph /  23.3km/h 24mph /  38.6km/h 56.9% 0in /  0.0mm
15:39 76.1 °F /  24.5 °C 59.4 °F /  15.2 °C 30in /  1017.4hPa ENE 13.7mph /  22km/h 25.3mph /  40.7km/h 56.3% 0in /  0.0mm
15:44 75.7 °F /  24.3 °C 59.5 °F /  15.3 °C 30in /  1017.4hPa ENE 12.5mph /  20.1km/h 25mph /  40.2km/h 57.2% 0in /  0.0mm
15:49 75.9 °F /  24.4 °C 59.7 °F /  15.4 °C 30in /  1017.4hPa NE 12.1mph /  19.4km/h 20mph /  32.2km/h 57% 0in /  0.0mm
15:54 76.3 °F /  24.6 °C 59.2 °F /  15.1 °C 30in /  1017.2hPa NE 11.4mph /  18.4km/h 20.8mph /  33.5km/h 55.6% 0in /  0.0mm
15:59 76.5 °F /  24.7 °C 59 °F /  15 °C 30in /  1017.2hPa NE 11.8mph /  19km/h 21mph /  33.8km/h 54.9% 0in /  0.0mm
16:04 76.1 °F /  24.5 °C 58.3 °F /  14.6 °C 30in /  1017.2hPa NE 12.3mph /  19.8km/h 28.8mph /  46.3km/h 54.2% 0in /  0.0mm
16:09 75.7 °F /  24.3 °C 58.5 °F /  14.7 °C 30in /  1017.2hPa NE 13.6mph /  21.9km/h 29mph /  46.7km/h 55% 0in /  0.0mm
16:14 75.9 °F /  24.4 °C 58.6 °F /  14.8 °C 30in /  1017.2hPa NE 15.6mph /  25.1km/h 27mph /  43.5km/h 55% 0in /  0.0mm
16:19 76.3 °F /  24.6 °C 59 °F /  15 °C 30in /  1017.2hPa NE 14.8mph /  23.9km/h 22mph /  35.4km/h 55.1% 0in /  0.0mm
16:24 76.1 °F /  24.5 °C 59.2 °F /  15.1 °C 30in /  1017.0hPa NE 13.7mph /  22.1km/h 22mph /  35.4km/h 55.9% 0in /  0.0mm
16:29 75.9 °F /  24.4 °C 59.5 °F /  15.3 °C 30in /  1017.0hPa NE 13.4mph /  21.6km/h 22mph /  35.4km/h 56.8% 0in /  0.0mm
16:34 76.3 °F /  24.6 °C 59.5 °F /  15.3 °C 30in /  1017.0hPa NE 13mph /  20.9km/h 23.5mph /  37.8km/h 56.4% 0in /  0.0mm
16:39 76.3 °F /  24.6 °C 59.7 °F /  15.4 °C 30in /  1017.0hPa NE 12.4mph /  19.9km/h 23mph /  37km/h 56.6% 0in /  0.0mm
16:44 76.3 °F /  24.6 °C 59.4 °F /  15.2 °C 30in /  1017.0hPa NE 11.4mph /  18.4km/h 25.3mph /  40.7km/h 55.9% 0in /  0.0mm
16:49 75.9 °F /  24.4 °C 58.8 °F /  14.9 °C 30in /  1017.0hPa NE 11.7mph /  18.9km/h 25mph /  40.2km/h 55.4% 0in /  0.0mm
16:54 75.9 °F /  24.4 °C 59 °F /  15 °C 30in /  1016.8hPa NE 12.3mph /  19.8km/h 24.6mph /  39.6km/h 56% 0in /  0.0mm
16:59 75.7 °F /  24.3 °C 58.8 °F /  14.9 °C 30in /  1016.8hPa NE 13.7mph /  22km/h 25mph /  40.2km/h 55.9% 0in /  0.0mm
17:04 75.6 °F /  24.2 °C 58.8 °F /  14.9 °C 30in /  1016.8hPa NE 15.6mph /  25.1km/h 25.6mph /  41.2km/h 56% 0in /  0.0mm
17:09 75.7 °F /  24.3 °C 58.6 °F /  14.8 °C 30in /  1016.6hPa NE 15.5mph /  24.9km/h 26mph /  41.8km/h 55.3% 0in /  0.0mm
17:14 75.7 °F /  24.3 °C 58.3 °F /  14.6 °C 30in /  1016.6hPa NE 15.2mph /  24.5km/h 26.5mph /  42.6km/h 55% 0in /  0.0mm
17:19 75.6 °F /  24.2 °C 58.6 °F /  14.8 °C 30in /  1016.6hPa NE 15.5mph /  24.9km/h 26.5mph /  42.6km/h 55.7% 0in /  0.0mm
17:24 75.4 °F /  24.1 °C 58.5 °F /  14.7 °C 30in /  1016.6hPa NE 15.9mph /  25.6km/h 26.5mph /  42.6km/h 55.8% 0in /  0.0mm
17:29 75.7 °F /  24.3 °C 58.6 °F /  14.8 °C 30in /  1016.6hPa NE 15.4mph /  24.8km/h 24mph /  38.6km/h 55.3% 0in /  0.0mm
17:34 75.9 °F /  24.4 °C 58.5 °F /  14.7 °C 30in /  1016.6hPa NE 14.7mph /  23.7km/h 25.3mph /  40.7km/h 55% 0in /  0.0mm
17:39 75.7 °F /  24.3 °C 58.6 °F /  14.8 °C 30in /  1016.4hPa NE 14.4mph /  23.2km/h 25mph /  40.2km/h 55.2% 0in /  0.0mm
17:44 75.7 °F /  24.3 °C 58.6 °F /  14.8 °C 30in /  1016.4hPa NE 14mph /  22.5km/h 25.3mph /  40.7km/h 55.6% 0in /  0.0mm
17:49 75.4 °F /  24.1 °C 58.6 °F /  14.8 °C 30in /  1016.4hPa NE 14.2mph /  22.8km/h 25.3mph /  40.7km/h 55.9% 0in /  0.0mm
17:54 75.2 °F /  24 °C 58.5 °F /  14.7 °C 30in /  1016.4hPa NE 14.5mph /  23.3km/h 25mph /  40.2km/h 56% 0in /  0.0mm
17:59 75.2 °F /  24 °C 58.5 °F /  14.7 °C 30in /  1016.4hPa NE 15mph /  24.1km/h 25.6mph /  41.2km/h 56% 0in /  0.0mm
18:04 75 °F /  23.9 °C 58.3 °F /  14.6 °C 30in /  1016.4hPa NE 15.6mph /  25.1km/h 26mph /  41.8km/h 56% 0in /  0.0mm
18:09 75 °F /  23.9 °C 58.5 °F /  14.7 °C 30in /  1016.3hPa NE 15.5mph /  24.9km/h 24mph /  38.6km/h 56.4% 0in /  0.0mm
18:14 75 °F /  23.9 °C 58.6 °F /  14.8 °C 30in /  1016.3hPa NE 15.2mph /  24.5km/h 23mph /  37km/h 56.7% 0in /  0.0mm
18:19 75.4 °F /  24.1 °C 58.6 °F /  14.8 °C 30in /  1016.3hPa NE 14.9mph /  24km/h 25.3mph /  40.7km/h 56% 0in /  0.0mm
18:24 75.6 °F /  24.2 °C 58.6 °F /  14.8 °C 30in /  1016.3hPa ENE 14.5mph /  23.3km/h 25mph /  40.2km/h 55.7% 0in /  0.0mm
18:29 75.7 °F /  24.3 °C 58.3 °F /  14.6 °C 30in /  1016.3hPa NE 13.9mph /  22.4km/h 23mph /  37km/h 55% 0in /  0.0mm
18:34 75.6 °F /  24.2 °C 58.1 °F /  14.5 °C 30in /  1016.3hPa NE 13mph /  20.9km/h 23mph /  37km/h 54.8% 0in /  0.0mm
18:39 75.6 °F /  24.2 °C 57.9 °F /  14.4 °C 30in /  1016.3hPa NE 13.3mph /  21.4km/h 23mph /  37km/h 54.4% 0in /  0.0mm
18:44 75.7 °F /  24.3 °C 57.9 °F /  14.4 °C 30in /  1016.3hPa NE 13.7mph /  22.1km/h 23mph /  37km/h 54% 0in /  0.0mm
18:49 75.7 °F /  24.3 °C 57.9 °F /  14.4 °C 30in /  1016.4hPa NE 12.8mph /  20.6km/h 20mph /  32.2km/h 54% 0in /  0.0mm
18:54 75.4 °F /  24.1 °C 57.7 °F /  14.3 °C 30in /  1016.4hPa NE 11.4mph /  18.4km/h 22.3mph /  35.9km/h 54.2% 0in /  0.0mm
18:59 75.2 °F /  24 °C 57.6 °F /  14.2 °C 30in /  1016.4hPa NE 12.4mph /  19.9km/h 22mph /  35.4km/h 54.4% 0in /  0.0mm
19:04 75 °F /  23.9 °C 57.6 °F /  14.2 °C 30in /  1016.4hPa NE 13.7mph /  22.1km/h 21mph /  33.8km/h 54.6% 0in /  0.0mm
19:09 75 °F /  23.9 °C 57.7 °F /  14.3 °C 30in /  1016.3hPa NE 13.2mph /  21.3km/h 21mph /  33.8km/h 55% 0in /  0.0mm
19:14 75 °F /  23.9 °C 57.7 °F /  14.3 °C 30in /  1016.3hPa NE 12.5mph /  20.1km/h 20mph /  32.2km/h 55% 0in /  0.0mm
19:19 74.8 °F /  23.8 °C 57.7 °F /  14.3 °C 30in /  1016.3hPa NE 12.1mph /  19.4km/h 20.7mph /  33.3km/h 55% 0in /  0.0mm
19:24 74.8 °F /  23.8 °C 57.6 °F /  14.2 °C 30in /  1016.1hPa NE 11.4mph /  18.4km/h 21mph /  33.8km/h 55% 0in /  0.0mm
19:29 74.7 °F /  23.7 °C 57.4 °F /  14.1 °C 30in /  1016.1hPa NE 11.6mph /  18.6km/h 21mph /  33.8km/h 55% 0in /  0.0mm
19:34 74.7 °F /  23.7 °C 57.4 °F /  14.1 °C 30in /  1016.2hPa NE 11.8mph /  19km/h 18.4mph /  29.6km/h 55% 0in /  0.0mm
19:39 74.7 °F /  23.7 °C 57.4 °F /  14.1 °C 30in /  1016.2hPa NE 11.1mph /  17.8km/h 18mph /  29km/h 54.8% 0in /  0.0mm
19:44 74.8 °F /  23.8 °C 56.7 °F /  13.7 °C 30in /  1016.2hPa NE 10mph /  16.1km/h 17.5mph /  28.2km/h 53.3% 0in /  0.0mm
19:49 74.7 °F /  23.7 °C 56.1 °F /  13.4 °C 30in /  1016.2hPa NE 10.1mph /  16.2km/h 18.5mph /  29.8km/h 52.5% 0in /  0.0mm
19:54 74.5 °F /  23.6 °C 55.8 °F /  13.2 °C 30in /  1016.2hPa NE 10.2mph /  16.4km/h 19mph /  30.6km/h 52.2% 0in /  0.0mm
19:59 74.3 °F /  23.5 °C 55.6 °F /  13.1 °C 30in /  1016.2hPa NE 10.4mph /  16.8km/h 17mph /  27.4km/h 52% 0in /  0.0mm
20:04 74.5 °F /  23.6 °C 55.4 °F /  13 °C 30in /  1016.2hPa NE 10.7mph /  17.2km/h 16mph /  25.7km/h 51.5% 0in /  0.0mm
20:09 74.5 °F /  23.6 °C 55.2 °F /  12.9 °C 30in /  1016.2hPa NE 10.1mph /  16.2km/h 15mph /  24.1km/h 51% 0in /  0.0mm
20:14 74.5 °F /  23.6 °C 54.9 °F /  12.7 °C 30in /  1016.2hPa NE 9.2mph /  14.8km/h 14mph /  22.5km/h 50.4% 0in /  0.0mm
20:19 74.5 °F /  23.6 °C 54.7 °F /  12.6 °C 30in /  1016.2hPa NE 8.9mph /  14.3km/h 14mph /  22.5km/h 50% 0in /  0.0mm
20:24 74.7 °F /  23.7 °C 54.5 °F /  12.5 °C 30in /  1016.2hPa NE 8.5mph /  13.7km/h 13mph /  20.9km/h 49.3% 0in /  0.0mm
20:29 74.8 °F /  23.8 °C 54.3 °F /  12.4 °C 30in /  1016.2hPa NE 8.3mph /  13.4km/h 13mph /  20.9km/h 49% 0in /  0.0mm
20:34 74.8 °F /  23.8 °C 54.3 °F /  12.4 °C 30in /  1016.2hPa NE 8.1mph /  13km/h 13mph /  20.9km/h 49% 0in /  0.0mm
20:39 74.8 °F /  23.8 °C 54.3 °F /  12.4 °C 30in /  1016.0hPa NE 8.3mph /  13.3km/h 15mph /  24.1km/h 49% 0in /  0.0mm
20:44 74.7 °F /  23.7 °C 54.1 °F /  12.3 °C 30in /  1016.0hPa NE 8.5mph /  13.7km/h 15mph /  24.1km/h 49% 0in /  0.0mm
20:49 74.7 °F /  23.7 °C 54.3 °F /  12.4 °C 30in /  1016.0hPa NE 7.5mph /  12.1km/h 10.4mph /  16.7km/h 49.2% 0in /  0.0mm
20:54 74.7 °F /  23.7 °C 54.7 °F /  12.6 °C 30in /  1016.0hPa NE 5.9mph /  9.5km/h 10mph /  16.1km/h 50% 0in /  0.0mm
20:59 74.5 °F /  23.6 °C 54.7 °F /  12.6 °C 30in /  1016.0hPa NE 5.2mph /  8.4km/h 8.1mph /  13km/h 50% 0in /  0.0mm
21:04 74.3 °F /  23.5 °C 54.5 °F /  12.5 °C 30in /  1016.0hPa ENE 4.3mph /  6.9km/h 8.5mph /  13.7km/h 50.1% 0in /  0.0mm
21:09 74.1 °F /  23.4 °C 54.9 °F /  12.7 °C 30in /  1015.9hPa ENE 4.3mph /  6.9km/h 9mph /  14.5km/h 51% 0in /  0.0mm
21:14 73.9 °F /  23.3 °C 54.7 °F /  12.6 °C 30in /  1015.9hPa ESE 4.3mph /  6.9km/h 8mph /  12.9km/h 51% 0in /  0.0mm
21:19 73.9 °F /  23.3 °C 54.7 °F /  12.6 °C 30in /  1015.9hPa Este 3.9mph /  6.2km/h 7.4mph /  11.9km/h 51% 0in /  0.0mm
21:24 73.8 °F /  23.2 °C 54.5 °F /  12.5 °C 30in /  1015.9hPa Este 3.1mph /  5km/h 7mph /  11.3km/h 51% 0in /  0.0mm
21:29 73.6 °F /  23.1 °C 54.3 °F /  12.4 °C 30in /  1015.9hPa ESE 3.5mph /  5.6km/h 7mph /  11.3km/h 51% 0in /  0.0mm
21:34 73.4 °F /  23 °C 54.3 °F /  12.4 °C 30in /  1016.0hPa ESE 4mph /  6.5km/h 6.2mph /  10km/h 51% 0in /  0.0mm
21:39 73.2 °F /  22.9 °C 54 °F /  12.2 °C 30in /  1016.0hPa ESE 3.9mph /  6.2km/h 6.9mph /  11.1km/h 51% 0in /  0.0mm
21:44 73.2 °F /  22.9 °C 54.1 °F /  12.3 °C 30in /  1016.0hPa ESE 3.6mph /  5.8km/h 7mph /  11.3km/h 51.3% 0in /  0.0mm
21:49 73.2 °F /  22.9 °C 54 °F /  12.2 °C 30in /  1016.1hPa SE 3.6mph /  5.8km/h 6mph /  9.7km/h 51% 0in /  0.0mm
21:54 73.4 °F /  23 °C 54.1 °F /  12.3 °C 30in /  1016.1hPa ESE 3.6mph /  5.8km/h 6.9mph /  11.1km/h 51% 0in /  0.0mm
21:59 73.4 °F /  23 °C 54 °F /  12.2 °C 30in /  1016.1hPa ESE 3.6mph /  5.8km/h 7mph /  11.3km/h 50.6% 0in /  0.0mm
22:04 73.4 °F /  23 °C 54.1 °F /  12.3 °C 30in /  1016.3hPa ESE 3.6mph /  5.8km/h 6mph /  9.7km/h 50.9% 0in /  0.0mm
22:09 73.2 °F /  22.9 °C 53.6 °F /  12 °C 30in /  1016.3hPa Este 3.4mph /  5.5km/h 5.2mph /  8.4km/h 50.2% 0in /  0.0mm
22:14 73.2 °F /  22.9 °C 54 °F /  12.2 °C 30in /  1016.3hPa SE 3.1mph /  5km/h 5.2mph /  8.4km/h 50.8% 0in /  0.0mm
22:19 73.2 °F /  22.9 °C 53.8 °F /  12.1 °C 30in /  1016.4hPa ESE 3.1mph /  5km/h 6.2mph /  10km/h 50.7% 0in /  0.0mm
22:24 73 °F /  22.8 °C 54 °F /  12.2 °C 30in /  1016.4hPa ESE 3.1mph /  5km/h 6.9mph /  11.1km/h 51% 0in /  0.0mm
22:29 73 °F /  22.8 °C 53.8 °F /  12.1 °C 30in /  1016.4hPa Este 3.3mph /  5.3km/h 7mph /  11.3km/h 51% 0in /  0.0mm
22:34 72.9 °F /  22.7 °C 54 °F /  12.2 °C 30in /  1016.8hPa Este 3.6mph /  5.8km/h 5mph /  8km/h 51.5% 0in /  0.0mm
22:39 72.7 °F /  22.6 °C 54 °F /  12.2 °C 30in /  1016.8hPa Este 3.4mph /  5.5km/h 5.2mph /  8.4km/h 52.1% 0in /  0.0mm
22:44 72.3 °F /  22.4 °C 54.3 °F /  12.4 °C 30in /  1016.8hPa Este 3.1mph /  5km/h 5.2mph /  8.4km/h 53% 0in /  0.0mm
22:49 72.3 °F /  22.4 °C 54.5 °F /  12.5 °C 30in /  1016.9hPa ENE 3.1mph /  5km/h 5.9mph /  9.5km/h 53.6% 0in /  0.0mm
22:54 72.3 °F /  22.4 °C 54.7 °F /  12.6 °C 30in /  1016.9hPa Este 3.1mph /  5km/h 6mph /  9.7km/h 54% 0in /  0.0mm
22:59 72.1 °F /  22.3 °C 54.7 °F /  12.6 °C 30in /  1016.9hPa Este 3mph /  4.8km/h 5.8mph /  9.3km/h 54% 0in /  0.0mm
23:04 72.1 °F /  22.3 °C 54.7 °F /  12.6 °C 30in /  1017.2hPa ESE 2.9mph /  4.7km/h 6mph /  9.7km/h 54% 0in /  0.0mm
23:09 72.1 °F /  22.3 °C 54.7 °F /  12.6 °C 30in /  1017.2hPa Este 2.5mph /  4.1km/h 5.2mph /  8.4km/h 54% 0in /  0.0mm
23:14 72.1 °F /  22.3 °C 54.5 °F /  12.5 °C 30in /  1017.2hPa Este 2mph /  3.2km/h 5.8mph /  9.3km/h 54% 0in /  0.0mm
23:19 72.1 °F /  22.3 °C 54.5 °F /  12.5 °C 30in /  1017.2hPa ESE 2.4mph /  3.9km/h 6mph /  9.7km/h 54% 0in /  0.0mm
23:24 72.1 °F /  22.3 °C 54.5 °F /  12.5 °C 30in /  1017.1hPa ESE 3.1mph /  5km/h 6mph /  9.7km/h 54% 0in /  0.0mm
23:29 72 °F /  22.2 °C 54.5 °F /  12.5 °C 30in /  1017.1hPa ESE 3.3mph /  5.3km/h 6mph /  9.7km/h 54% 0in /  0.0mm
23:34 72 °F /  22.2 °C 54.3 °F /  12.4 °C 30in /  1017.1hPa ESE 3.6mph /  5.8km/h 6mph /  9.7km/h 54% 0in /  0.0mm
23:39 72 °F /  22.2 °C 54.3 °F /  12.4 °C 30in /  1017.1hPa Este 3.3mph /  5.3km/h 6.9mph /  11.1km/h 54% 0in /  0.0mm
23:44 71.8 °F /  22.1 °C 54.1 °F /  12.3 °C 30in /  1017.1hPa ESE 2.9mph /  4.7km/h 7mph /  11.3km/h 54% 0in /  0.0mm
23:49 71.8 °F /  22.1 °C 54.7 °F /  12.6 °C 30in /  1017.1hPa Este 2.9mph /  4.7km/h 6mph /  9.7km/h 54.9% 0in /  0.0mm
23:54 71.4 °F /  21.9 °C 54.5 °F /  12.5 °C 30in /  1016.9hPa Este 2.9mph /  4.7km/h 5.4mph /  8.7km/h 55% 0in /  0.0mm
23:59 71.2 °F /  21.8 °C 54.5 °F /  12.5 °C 30in /  1016.9hPa ESE 3mph /  4.8km/h 6.9mph /  11.1km/h 55.5% 0in /  0.0mm
Murcia-Puente Tocinos, Espa?a
Compliments of Weather Underground - 3.25 mb

La estación de MeteoMurcia.com, publica sus datos en los siguientes proyectos:

Weather Underground PWS IMURCIAP2 Meteoclimatic www.awekas.at

W3Counter
Web Analytics